createdAt,value
2022-09-27T00:02:04.388Z,99207.78
2022-09-27T00:07:07.279Z,99206.09
2022-09-27T00:12:11.955Z,99193.00
2022-09-27T00:17:14.830Z,99191.25
2022-09-27T00:22:17.685Z,99186.91
2022-09-27T00:27:22.147Z,99178.16
2022-09-27T00:32:24.977Z,99172.94
2022-09-27T00:37:27.791Z,99167.63
2022-09-27T00:42:32.005Z,99172.03
2022-09-27T00:47:40.052Z,99165.88
2022-09-27T00:52:47.365Z,99160.63
2022-09-27T00:57:52.372Z,99150.94
2022-09-27T01:02:58.019Z,99144.88
2022-09-27T01:08:01.257Z,99139.66
2022-09-27T01:13:14.161Z,99134.41
2022-09-27T01:18:27.975Z,99137.06
2022-09-27T01:23:52.988Z,99123.09
2022-09-27T01:29:05.550Z,99114.34
2022-09-27T01:34:20.235Z,99108.19
2022-09-27T01:39:36.558Z,99110.78
2022-09-27T01:44:46.527Z,99103.75
2022-09-27T01:49:57.354Z,99096.72
2022-09-27T01:55:04.458Z,99094.09
2022-09-27T02:00:10.052Z,99086.13
2022-09-27T02:05:17.959Z,99091.38
2022-09-27T02:10:24.493Z,99078.97
2022-09-27T02:15:28.333Z,99073.66
2022-09-27T02:20:38.440Z,99076.28
2022-09-27T02:25:47.745Z,99078.00
2022-09-27T02:30:51.393Z,99073.53
2022-09-27T02:35:55.635Z,99074.31
2022-09-27T02:40:58.580Z,99065.47
2022-09-27T02:46:20.436Z,99063.63
2022-09-27T02:51:37.545Z,99060.06
2022-09-27T02:56:49.983Z,99051.22
2022-09-27T03:02:02.707Z,99052.13
2022-09-27T03:07:07.851Z,99041.47
2022-09-27T03:12:10.688Z,99042.31
2022-09-27T03:17:13.671Z,99037.94
2022-09-27T03:22:18.068Z,99023.88
2022-09-27T03:27:21.135Z,99026.53
2022-09-27T03:32:23.930Z,99022.09
2022-09-27T03:37:29.463Z,99024.69
2022-09-27T03:42:32.310Z,99014.97
2022-09-27T03:47:35.184Z,99016.66
2022-09-27T03:52:39.684Z,99008.69
2022-09-27T03:57:47.243Z,99005.16
2022-09-27T04:02:50.473Z,99003.38
2022-09-27T04:07:54.873Z,98986.69
2022-09-27T04:12:57.670Z,98998.06
2022-09-27T04:18:00.485Z,98996.28
2022-09-27T04:23:05.027Z,98986.66
2022-09-27T04:28:07.889Z,98980.44
2022-09-27T04:33:10.697Z,98978.69
2022-09-27T04:38:15.358Z,98978.69
2022-09-27T04:43:18.358Z,98982.16
2022-09-27T04:48:21.252Z,98981.22
2022-09-27T04:53:25.621Z,98979.50
2022-09-27T04:58:29.927Z,98973.28
2022-09-27T05:03:33.142Z,98980.31
2022-09-27T05:08:37.331Z,98968.91
2022-09-27T05:13:40.136Z,98976.81
2022-09-27T05:18:42.951Z,98976.81
2022-09-27T05:23:47.995Z,98973.31
2022-09-27T05:28:51.292Z,98970.72
2022-09-27T05:33:54.114Z,98962.84
2022-09-27T05:38:58.291Z,98967.25
2022-09-27T05:44:01.173Z,98964.63
2022-09-27T05:49:03.982Z,98965.56
2022-09-27T05:54:08.454Z,98957.72
2022-09-27T05:59:11.279Z,98956.00
2022-09-27T06:04:14.158Z,98960.47
2022-09-27T06:09:18.624Z,98963.16
2022-09-27T06:14:22.169Z,98963.13
2022-09-27T06:19:25.038Z,98963.16
2022-09-27T06:24:29.339Z,98958.84
2022-09-27T06:29:35.656Z,98958.03
2022-09-27T06:34:38.504Z,98962.41
2022-09-27T06:39:42.678Z,98951.88
2022-09-27T06:44:50.090Z,98956.25
2022-09-27T06:49:53.284Z,98961.53
2022-09-27T06:54:57.456Z,98951.91
2022-09-27T07:00:17.670Z,98945.78
2022-09-27T07:05:21.091Z,98958.16
2022-09-27T07:10:26.760Z,98965.22
2022-09-27T07:15:29.644Z,98971.44
2022-09-27T07:20:33.039Z,98968.88
2022-09-27T07:25:37.606Z,98955.75
2022-09-27T07:30:41.556Z,98967.19
2022-09-27T07:35:44.760Z,98966.34
2022-09-27T07:40:49.091Z,98971.72
2022-09-27T07:45:52.002Z,98972.59
2022-09-27T07:50:55.033Z,98970.88
2022-09-27T07:55:59.180Z,98963.81
2022-09-27T08:01:03.329Z,98964.66
2022-09-27T08:06:06.339Z,98969.09
2022-09-27T08:11:15.329Z,98965.56
2022-09-27T08:16:18.192Z,98969.06
2022-09-27T08:21:21.002Z,98973.44
2022-09-27T08:26:25.285Z,98973.44
2022-09-27T08:31:28.138Z,98980.41
2022-09-27T08:36:31.766Z,98975.97
2022-09-27T08:41:39.866Z,98978.63
2022-09-27T08:46:53.944Z,98982.19
2022-09-27T08:51:59.185Z,98986.66
2022-09-27T08:57:07.143Z,98985.75
2022-09-27T09:02:19.016Z,98989.31
2022-09-27T09:07:34.744Z,98995.47
2022-09-27T09:12:50.545Z,98989.34
2022-09-27T09:18:16.318Z,98992.00
2022-09-27T09:23:55.830Z,98991.25
2022-09-27T09:29:12.020Z,98999.28
2022-09-27T09:34:21.586Z,98998.50
2022-09-27T09:39:29.389Z,98995.94
2022-09-27T09:44:40.095Z,98996.91
2022-09-27T09:49:48.576Z,98988.19
2022-09-27T09:54:54.910Z,98987.53
2022-09-27T10:00:02.463Z,98985.94
2022-09-27T10:05:08.184Z,98992.19
2022-09-27T10:10:16.186Z,98989.69
2022-09-27T10:15:23.423Z,98980.09
2022-09-27T10:20:31.433Z,98977.53
2022-09-27T10:25:52.950Z,98976.75
2022-09-27T10:30:59.315Z,98975.16
2022-09-27T10:36:03.238Z,98970.00
2022-09-27T10:41:24.564Z,98981.59
2022-09-27T10:46:31.632Z,98980.81
2022-09-27T10:51:35.023Z,98978.25
2022-09-27T10:56:37.956Z,98976.53
2022-09-27T11:01:45.745Z,98974.88
2022-09-27T11:06:49.741Z,98967.91
2022-09-27T11:11:52.864Z,98973.22
2022-09-27T11:17:11.003Z,98969.72
2022-09-27T11:22:27.252Z,98961.81
2022-09-27T11:27:43.425Z,98970.72
2022-09-27T11:33:05.383Z,98971.59
2022-09-27T11:38:40.781Z,98975.09
2022-09-27T11:44:05.645Z,98981.19
2022-09-27T11:49:36.669Z,98987.31
2022-09-27T11:54:58.205Z,98974.03
2022-09-27T12:00:19.633Z,98981.91
2022-09-27T12:05:40.787Z,98988.84
2022-09-27T12:10:49.266Z,98987.84
2022-09-27T12:15:52.410Z,98985.13
2022-09-27T12:20:57.186Z,98991.28
2022-09-27T12:26:07.408Z,98990.31
2022-09-27T12:31:28.869Z,98987.66
2022-09-27T12:36:38.847Z,98995.59
2022-09-27T12:41:47.844Z,98990.28
2022-09-27T12:47:02.009Z,98996.41
2022-09-27T12:52:11.895Z,98997.38
2022-09-27T12:57:22.503Z,98988.63
2022-09-27T13:03:14.281Z,98989.50
2022-09-27T13:08:30.962Z,98980.75
2022-09-27T13:13:36.699Z,98979.94
2022-09-27T13:18:56.045Z,98997.56
2022-09-27T13:24:00.648Z,98995.59
2022-09-27T13:29:04.653Z,99006.97
2022-09-27T13:34:38.887Z,99010.53
2022-09-27T13:39:43.000Z,99011.53
2022-09-27T13:45:06.194Z,99008.13
2022-09-27T13:50:21.689Z,99014.44
2022-09-27T13:55:46.299Z,99016.28
2022-09-27T14:00:54.587Z,99030.28
2022-09-27T14:06:03.489Z,99036.13
2022-09-27T14:11:16.653Z,99043.63
2022-09-27T14:16:20.862Z,99039.84
2022-09-27T14:21:29.870Z,99041.47
2022-09-27T14:26:33.931Z,99044.22
2022-09-27T14:31:38.883Z,99045.09
2022-09-27T14:36:58.911Z,99055.69
2022-09-27T14:42:06.520Z,99054.84
2022-09-27T14:47:10.470Z,99061.97
2022-09-27T14:52:19.061Z,99059.41
2022-09-27T14:57:23.233Z,99064.78
2022-09-27T15:02:27.201Z,99052.59
2022-09-27T15:07:30.069Z,99067.53
2022-09-27T15:12:35.478Z,99073.59
2022-09-27T15:17:43.722Z,99083.25
2022-09-27T15:22:48.046Z,99078.88
2022-09-27T15:27:54.721Z,99080.59
2022-09-27T15:32:57.653Z,99089.31
2022-09-27T15:38:25.893Z,99099.75
2022-09-27T15:43:31.722Z,99111.88
2022-09-27T15:48:37.577Z,99111.75
2022-09-27T15:53:45.494Z,99109.06
2022-09-27T15:58:49.604Z,99118.69
2022-09-27T16:03:52.317Z,99123.03
2022-09-27T16:08:55.110Z,99128.09
2022-09-27T16:13:59.150Z,99128.75
2022-09-27T16:19:01.840Z,99136.47
2022-09-27T16:24:06.378Z,99130.94
2022-09-27T16:29:13.245Z,99139.59
2022-09-27T16:34:16.025Z,99144.69
2022-09-27T16:39:18.765Z,99141.03
2022-09-27T16:44:23.183Z,99146.25
2022-09-27T16:49:43.307Z,99155.94
2022-09-27T16:54:46.201Z,99157.66
2022-09-27T16:59:50.245Z,99158.50
2022-09-27T17:04:53.367Z,99169.03
2022-09-27T17:09:56.089Z,99164.59
2022-09-27T17:15:00.167Z,99170.72
2022-09-27T17:20:02.905Z,99178.53
2022-09-27T17:25:06.173Z,99179.38
2022-09-27T17:30:11.314Z,99189.94
2022-09-27T17:35:14.008Z,99192.53
2022-09-27T17:40:17.645Z,99188.09
2022-09-27T17:45:22.274Z,99189.88
2022-09-27T17:50:28.754Z,99203.09
2022-09-27T17:55:32.497Z,99200.50
2022-09-27T18:00:36.554Z,99203.13
2022-09-27T18:05:39.277Z,99206.59
2022-09-27T18:10:42.365Z,99210.91
2022-09-27T18:15:56.724Z,99209.09
2022-09-27T18:21:03.514Z,99216.94
2022-09-27T18:26:08.890Z,99210.66
2022-09-27T18:31:14.811Z,99221.13
2022-09-27T18:36:19.513Z,99214.00
2022-09-27T18:41:23.498Z,99220.91
2022-09-27T18:46:37.069Z,99224.34
2022-09-27T18:51:43.516Z,99228.59
2022-09-27T18:56:46.959Z,99236.44
2022-09-27T19:01:51.433Z,99238.03
2022-09-27T19:06:55.570Z,99237.16
2022-09-27T19:11:58.361Z,99235.41
2022-09-27T19:17:02.461Z,99235.38
2022-09-27T19:22:05.535Z,99241.38
2022-09-27T19:27:08.273Z,99232.53
2022-09-27T19:32:12.310Z,99243.91
2022-09-27T19:37:15.064Z,99237.69
2022-09-27T19:42:17.751Z,99238.53
2022-09-27T19:47:21.829Z,99246.34
2022-09-27T19:52:24.832Z,99246.31
2022-09-27T19:57:27.594Z,99253.38
2022-09-27T20:02:31.873Z,99243.72
2022-09-27T20:07:35.014Z,99254.16
2022-09-27T20:12:37.757Z,99259.34
2022-09-27T20:17:42.342Z,99256.66
2022-09-27T20:22:45.050Z,99259.25
2022-09-27T20:27:47.741Z,99262.66
2022-09-27T20:33:07.009Z,99263.56
2022-09-27T20:38:09.725Z,99261.81
2022-09-27T20:43:12.431Z,99256.53
2022-09-27T20:48:16.531Z,99261.72
2022-09-27T20:53:19.410Z,99265.22
2022-09-27T20:58:22.625Z,99267.06
2022-09-27T21:03:26.694Z,99258.38
2022-09-27T21:08:31.216Z,99260.16
2022-09-27T21:13:34.033Z,99261.91
2022-09-27T21:18:38.484Z,99270.75
2022-09-27T21:23:44.925Z,99283.00
2022-09-27T21:28:49.968Z,99278.59
2022-09-27T21:33:58.479Z,99277.69
2022-09-27T21:39:02.124Z,99282.91
2022-09-27T21:44:05.991Z,99279.41
2022-09-27T21:49:11.107Z,99288.09
2022-09-27T21:54:16.119Z,99295.19
2022-09-27T21:59:18.960Z,99294.34
2022-09-27T22:04:23.213Z,99287.25
2022-09-27T22:09:25.929Z,99292.50
2022-09-27T22:14:28.632Z,99296.00
2022-09-27T22:19:32.799Z,99293.34
2022-09-27T22:24:35.499Z,99299.47
2022-09-27T22:29:38.214Z,99287.19
2022-09-27T22:34:42.384Z,99297.72
2022-09-27T22:39:45.087Z,99286.25
2022-09-27T22:44:47.816Z,99284.47
2022-09-27T22:49:51.877Z,99282.56
2022-09-27T22:54:54.599Z,99285.97
2022-09-27T22:59:57.310Z,99285.75
2022-09-27T23:05:01.425Z,99287.44
2022-09-27T23:10:04.300Z,99285.59
2022-09-27T23:15:08.275Z,99287.31
2022-09-27T23:20:14.283Z,99282.13
2022-09-27T23:25:17.499Z,99282.97
2022-09-27T23:30:22.586Z,99289.13
2022-09-27T23:35:30.911Z,99289.13
2022-09-27T23:40:35.957Z,99289.22
2022-09-27T23:45:39.579Z,99289.16
2022-09-27T23:50:45.049Z,99288.22
2022-09-27T23:55:48.577Z,99280.31
